• Join FlightAware (Why Join?)
  • Login
  • US Flag 
11:19AM EDT


 

Airport Tracker/Info


-or-


 

Live Flight TrackerFlight Track Log ✈ FIN666 ✈ 29-Dec-2013 ✈ EKCH / CPH - EFHK / HEL

Flight Track Log - Related Links

Times and Time Zones

All times are in EST time to prevent confusion due to time zone crossing. See the FIN666 flight status page for this flight to view local times or setup timezone preferences in your user account.

Time Position Orientation Groundspeed Altitude Reporting Facility
EST Latitude Longitude Course Direction KTS MPH feet Rate Location/Type
07:25AM 55.8486 13.1329 49° Northeast  Level Estimated
07:26AM 55.9251 13.2931 50° Northeast  Level Estimated
07:27AM 56.0014 13.4539 50° Northeast  Level Estimated
07:28AM 56.0797 13.6203 50° Northeast  Level Estimated
07:29AM 56.1579 13.7874 50° Northeast  Level Estimated
07:30AM 56.2358 13.9551 50° Northeast  Level Estimated
07:31AM 56.3135 14.1236 50° Northeast  Level Estimated
07:32AM 56.3909 14.2927 50° Northeast  Level Estimated
07:33AM 56.4682 14.4625 50° Northeast  Level Estimated
07:34AM 56.5452 14.6330 51° Northeast  Level Estimated
07:35AM 56.6219 14.8042 51° Northeast  Level Estimated
07:36AM 56.6984 14.9761 51° Northeast  Level Estimated
07:37AM 56.7747 15.1487 51° Northeast  Level Estimated
07:38AM 56.8508 15.3220 51° Northeast  Level Estimated
07:39AM 56.9266 15.4959 51° Northeast  Level Estimated
07:40AM 57.0022 15.6706 51° Northeast  Level Estimated
07:41AM 57.0775 15.8461 52° Northeast  Level Estimated
07:42AM 57.1525 16.0222 52° Northeast  Level Estimated
07:43AM 57.2274 16.1990 52° Northeast  Level Estimated
07:44AM 57.3020 16.3766 52° Northeast  Level Estimated
07:45AM 57.3763 16.5549 52° Northeast  Level Estimated
07:46AM 57.4504 16.7339 52° Northeast  Level Estimated
07:47AM 57.5242 16.9136 53° Northeast  Level Estimated
07:48AM 57.5977 17.0940 53° Northeast  Level Estimated
07:49AM 57.6710 17.2752 53° Northeast  Level Estimated
07:50AM 57.7441 17.4571 53° Northeast  Level Estimated
07:51AM 57.8169 17.6398 53° Northeast  Level Estimated
07:52AM 57.8894 17.8232 53° Northeast  Level Estimated
07:53AM 57.9616 18.0073 53° Northeast  Level Estimated
07:54AM 58.0336 18.1922 54° Northeast  Level Estimated
07:55AM 58.1053 18.3778 54° Northeast  Level Estimated
07:56AM 58.1768 18.5642 54° Northeast  Level Estimated
07:57AM 58.2480 18.7513 54° Northeast  Level Estimated
07:58AM 58.3189 18.9391 54° Northeast  Level Estimated
07:59AM 58.3895 19.1278 54° Northeast  Level Estimated
08:00AM 58.4598 19.3171 55° Northeast  Level Estimated
08:01AM 58.5299 19.5072 55° Northeast  Level Estimated
08:02AM 58.5997 19.6981 55° Northeast  Level Estimated
08:03AM 58.6692 19.8898 55° Northeast  Level Estimated
08:04AM 58.7384 20.0822 55° Northeast  Level Estimated
08:05AM 58.8073 20.2754 55° Northeast  Level Estimated
08:06AM 58.8759 20.4693 56° Northeast  Level Estimated
08:07AM 58.9443 20.6640 56° Northeast  Level Estimated
08:08AM 59.0123 20.8595 56° Northeast  Level Estimated
08:09AM 59.0801 21.0558 56° Northeast  Level Estimated
08:10AM 59.1465 21.2499 56° Northeast  Level Estimated
08:11AM 59.2127 21.4447 56° Northeast  Level Estimated
08:12AM 59.2785 21.6403 57° Northeast  Level Estimated
08:13AM 59.3441 21.8367 57° Northeast  Level Estimated
08:14AM 59.4094 22.0338 57° Northeast  Level Estimated
08:15AM 59.4744 22.2317 57° Northeast  Level Estimated
08:16AM 59.5391 22.4303 57° Northeast  Level Estimated
08:17AM 59.6034 22.6297 57° Northeast  Level Estimated
08:18AM 59.6675 22.8298 58° Northeast  Level Estimated
08:19AM 59.7313 23.0308 58° Northeast  Level Estimated
08:20AM 59.7947 23.2325 58° Northeast  Level Estimated
08:21AM 59.8579 23.4349 58° Northeast  Level Estimated
08:22AM 59.9207 23.6381 58° Northeast  Level Estimated
08:23AM 59.9832 23.8421 58° Northeast  Level Estimated
08:24AM 60.0455 24.0469 59° Northeast  Level Estimated
08:25AM 60.1073 24.2524 59° Northeast  Level Estimated
08:26AM 60.1689 24.4587 59° Northeast  Level Estimated
08:27AM 60.2302 24.6658 59° Northeast  Level Estimated
08:28AM 60.2930 24.8800 59° Northeast  Level Estimated
08:29AM 60.3172 24.9633 60° Northeast  Level Estimated
08:30AM 60.3172 24.9633 37° Northeast  Level Estimated
08:31AM 60.3172 24.9633 37° Northeast  Level Estimated
08:32AM 60.3172 24.9633 37° Northeast  Level Estimated
08:33AM 60.3172 24.9633 37° Northeast  Level Estimated
08:34AM 60.3172 24.9633 37° Northeast  Level Estimated
08:35AM 60.3172 24.9633 37° Northeast  Level Estimated
08:36AM 60.3172 24.9633 37° Northeast  Level Estimated
08:37AM 60.3172 24.9633 37° Northeast  Level Estimated
08:38AM 60.3172 24.9633 37° Northeast  Level Estimated
08:39AM 60.3172 24.9633 37° Northeast  Level Estimated
08:40AM 60.3172 24.9633 37° Northeast  Level Estimated
08:41AM 60.3172 24.9633 37° Northeast  Level Estimated
08:42AM 60.3172 24.9633 37° Northeast  Level Estimated
08:43AM 60.3172 24.9633 37° Northeast  Level Estimated